Time;durP1;ratioP1;P1;durP2;ratioP2;P2;SDS_P1;SDS_P2;PMS_P1;PMS_P2;Temp;Humidity;BMP_temperature;BMP_pressure;BME280_temperature;BME280_humidity;BME280_pressure;Samples;Min_cycle;Max_cycle;Signal;HPM_P1;HPM_P2
2023/10/07 00:03:29;;;;;;;;;;;15.10;99.90;;;;;;12491408;28;20006;-35
2023/10/07 00:09:34;;;;;;;;;;;15.20;99.90;;;;;;12499245;28;20400;-35
2023/10/07 00:15:37;;;;;;;;;;;15.10;99.90;;;;;;12502367;28;19928;-34
2023/10/07 00:21:55;;;;;;;;;;;15.10;99.90;;;;;;12483235;28;19928;-35
2023/10/07 00:27:57;;;;;;;;;;;15.10;99.90;;;;;;12498696;28;20031;-35
2023/10/07 00:34:04;;;;;;;;;;;15.10;99.90;;;;;;12499090;28;20724;-35
2023/10/07 00:40:31;;;;;;;;;;;15.10;99.90;;;;;;12505694;28;19971;-35
2023/10/07 00:46:34;;;;;;;;;;;15.10;99.90;;;;;;12500997;28;19971;-35
2023/10/07 00:52:56;;;;;;;;;;;15.10;99.90;;;;;;12502826;28;19933;-35
2023/10/07 00:59:02;;;;;;;;;;;15.10;99.90;;;;;;12499689;28;19924;-35
2023/10/07 01:05:13;;;;;;;;;;;15.10;99.90;;;;;;12489934;28;19967;-34
2023/10/07 01:17:30;;;;;;;;;;;15.10;99.90;;;;;;12506607;28;19929;-35
2023/10/07 01:23:33;;;;;;;;;;;15.10;99.90;;;;;;12507666;28;19948;-35
2023/10/07 01:29:35;;;;;;;;;;;15.10;99.90;;;;;;12509301;28;20011;-34
2023/10/07 01:35:50;;;;;;;;;;;15.10;99.90;;;;;;12507196;28;20047;-35
2023/10/07 01:42:01;;;;;;;;;;;15.10;99.90;;;;;;12511993;28;19932;-35
2023/10/07 01:48:07;;;;;;;;;;;15.10;99.90;;;;;;12501081;28;20405;-35
2023/10/07 01:54:11;;;;;;;;;;;15.10;99.90;;;;;;12515729;28;19932;-35
2023/10/07 02:00:13;;;;;;;;;;;15.00;99.90;;;;;;12504126;28;19979;-35
2023/10/07 02:06:18;;;;;;;;;;;15.00;99.90;;;;;;12519273;28;19997;-35
2023/10/07 02:12:20;;;;;;;;;;;15.00;99.90;;;;;;12515439;28;19925;-35
2023/10/07 02:18:35;;;;;;;;;;;15.00;99.90;;;;;;12514336;28;20510;-35
2023/10/07 02:24:43;;;;;;;;;;;14.90;99.90;;;;;;12515122;28;19932;-35
2023/10/07 02:31:01;;;;;;;;;;;15.00;99.90;;;;;;12518916;28;19939;-35
2023/10/07 02:37:12;;;;;;;;;;;15.00;99.90;;;;;;12520962;28;20450;-35
2023/10/07 02:43:15;;;;;;;;;;;14.90;99.90;;;;;;12498094;28;19936;-35
2023/10/07 02:49:20;;;;;;;;;;;14.90;99.90;;;;;;12499805;28;20652;-35
2023/10/07 03:01:25;;;;;;;;;;;14.90;99.90;;;;;;12488964;28;19984;-34
2023/10/07 03:07:27;;;;;;;;;;;14.80;99.90;;;;;;12498957;28;19941;-35
2023/10/07 03:13:37;;;;;;;;;;;14.70;99.90;;;;;;12480965;28;19929;-35
2023/10/07 03:19:58;;;;;;;;;;;14.70;99.90;;;;;;12505779;28;19937;-35
2023/10/07 03:32:07;;;;;;;;;;;14.70;99.90;;;;;;12500174;28;19929;-35
2023/10/07 03:38:10;;;;;;;;;;;14.70;99.90;;;;;;12496307;28;19928;-35
2023/10/07 03:44:11;;;;;;;;;;;14.60;99.90;;;;;;12499937;28;19929;-35
2023/10/07 03:50:48;;;;;;;;;;;14.60;99.90;;;;;;12494826;28;20340;-35
2023/10/07 03:56:42;;;;;;;;;;;14.50;99.90;;;;;;12490070;28;19935;-35
2023/10/07 04:02:45;;;;;;;;;;;14.40;99.90;;;;;;12496570;28;19928;-35
2023/10/07 04:08:58;;;;;;;;;;;14.30;99.90;;;;;;12498190;28;19960;-35
2023/10/07 04:15:02;;;;;;;;;;;14.20;99.90;;;;;;12494640;28;19929;-35
2023/10/07 04:21:06;;;;;;;;;;;14.20;99.90;;;;;;12490217;28;19941;-35
2023/10/07 04:27:08;;;;;;;;;;;14.20;99.90;;;;;;12498032;28;19935;-35
2023/10/07 04:33:10;;;;;;;;;;;14.20;99.90;;;;;;12490633;28;20428;-35
2023/10/07 04:39:18;;;;;;;;;;;14.30;99.90;;;;;;12499712;28;19936;-35
2023/10/07 04:45:35;;;;;;;;;;;14.40;99.90;;;;;;12498211;28;19928;-34
2023/10/07 05:03:58;;;;;;;;;;;14.40;99.90;;;;;;12500048;28;19979;-35
2023/10/07 05:10:02;;;;;;;;;;;14.40;99.90;;;;;;12485953;28;19982;-35
2023/10/07 05:16:08;;;;;;;;;;;14.40;99.90;;;;;;12493238;28;19933;-35
2023/10/07 05:22:16;;;;;;;;;;;14.30;99.90;;;;;;12497581;28;20380;-35
2023/10/07 05:28:20;;;;;;;;;;;14.40;99.90;;;;;;12495115;28;20442;-35
2023/10/07 05:34:29;;;;;;;;;;;14.40;99.90;;;;;;12493260;28;19929;-35
2023/10/07 05:40:33;;;;;;;;;;;14.50;99.90;;;;;;12492131;28;20388;-35
2023/10/07 05:46:36;;;;;;;;;;;14.50;99.90;;;;;;12497565;28;19929;-34
2023/10/07 05:52:39;;;;;;;;;;;14.40;99.90;;;;;;12496113;28;20372;-34
2023/10/07 05:58:43;;;;;;;;;;;14.50;99.90;;;;;;12500132;28;19951;-35
2023/10/07 06:04:45;;;;;;;;;;;14.40;99.90;;;;;;12502916;28;19929;-34
2023/10/07 06:10:51;;;;;;;;;;;14.40;99.90;;;;;;12506903;28;20015;-35
2023/10/07 06:16:53;;;;;;;;;;;14.40;99.90;;;;;;12503557;28;20463;-35
2023/10/07 06:22:58;;;;;;;;;;;14.50;99.90;;;;;;12498181;28;19940;-35
2023/10/07 06:29:05;;;;;;;;;;;14.50;99.90;;;;;;12500980;28;19933;-35
2023/10/07 06:35:13;;;;;;;;;;;14.50;99.90;;;;;;12501114;28;20329;-35
2023/10/07 06:41:15;;;;;;;;;;;14.50;99.90;;;;;;12500238;28;19925;-35
2023/10/07 06:47:17;;;;;;;;;;;14.50;99.90;;;;;;12507641;28;19975;-34
2023/10/07 06:53:22;;;;;;;;;;;14.50;99.90;;;;;;12505234;28;20063;-34
2023/10/07 06:59:27;;;;;;;;;;;14.60;99.90;;;;;;12502272;28;19929;-33
2023/10/07 07:05:35;;;;;;;;;;;14.60;99.90;;;;;;12499423;28;19939;-35
2023/10/07 07:11:36;;;;;;;;;;;14.60;99.90;;;;;;12499278;28;19933;-34
2023/10/07 07:17:43;;;;;;;;;;;14.60;99.90;;;;;;12495523;28;20384;-34
2023/10/07 07:23:49;;;;;;;;;;;14.70;99.90;;;;;;12502538;28;19928;-34
2023/10/07 07:29:51;;;;;;;;;;;14.70;99.90;;;;;;12495698;28;19932;-34
2023/10/07 07:35:56;;;;;;;;;;;14.80;99.90;;;;;;12504680;28;20361;-34
2023/10/07 07:42:15;;;;;;;;;;;14.90;99.90;;;;;;12498907;28;19981;-35
2023/10/07 07:48:17;;;;;;;;;;;15.10;99.90;;;;;;12471118;28;19929;-34
2023/10/07 07:54:19;;;;;;;;;;;15.10;99.90;;;;;;12453076;28;20418;-34
2023/10/07 08:00:20;;;;;;;;;;;15.10;99.90;;;;;;12450998;28;19936;-34
2023/10/07 08:06:25;;;;;;;;;;;15.10;99.90;;;;;;12450941;28;19929;-34
2023/10/07 08:12:28;;;;;;;;;;;15.20;99.90;;;;;;12444663;28;19929;-34
2023/10/07 08:18:30;;;;;;;;;;;15.20;99.90;;;;;;12452402;28;20002;-34
2023/10/07 08:24:39;;;;;;;;;;;15.20;99.90;;;;;;12445798;28;19936;-35
2023/10/07 08:30:46;;;;;;;;;;;15.30;99.90;;;;;;12451742;28;19980;-34
2023/10/07 08:36:49;;;;;;;;;;;15.20;99.90;;;;;;12449669;28;19934;-35
2023/10/07 08:42:53;;;;;;;;;;;15.30;99.90;;;;;;12452966;28;20020;-35
2023/10/07 08:49:04;;;;;;;;;;;15.40;99.90;;;;;;12437625;28;20342;-34
2023/10/07 08:55:09;;;;;;;;;;;15.50;99.90;;;;;;12442690;28;19933;-35
2023/10/07 09:01:17;;;;;;;;;;;15.50;99.90;;;;;;12450348;28;19929;-34
2023/10/07 09:07:20;;;;;;;;;;;15.50;99.90;;;;;;12448417;28;20078;-34
2023/10/07 09:13:31;;;;;;;;;;;15.60;99.90;;;;;;12447129;28;19929;-34
2023/10/07 09:19:34;;;;;;;;;;;15.60;99.90;;;;;;12447624;28;20028;-34
2023/10/07 09:25:36;;;;;;;;;;;15.60;99.90;;;;;;12457716;28;20293;-35
2023/10/07 09:31:39;;;;;;;;;;;15.80;99.90;;;;;;12454509;28;20856;-34
2023/10/07 09:37:42;;;;;;;;;;;15.90;99.90;;;;;;12427925;28;20014;-34
2023/10/07 09:43:48;;;;;;;;;;;16.10;99.90;;;;;;12455957;28;19933;-34
2023/10/07 09:49:50;;;;;;;;;;;16.30;99.90;;;;;;12459626;28;19983;-34
2023/10/07 09:55:57;;;;;;;;;;;16.40;99.90;;;;;;12455699;28;20019;-34
2023/10/07 10:02:16;;;;;;;;;;;16.40;99.90;;;;;;12459632;28;19933;-35
2023/10/07 10:08:37;;;;;;;;;;;16.60;99.90;;;;;;12466114;28;19983;-34
2023/10/07 10:15:10;;;;;;;;;;;17.00;99.90;;;;;;12441492;28;20366;-34
2023/10/07 10:21:12;;;;;;;;;;;17.00;99.90;;;;;;12458292;28;19979;-35
2023/10/07 10:27:15;;;;;;;;;;;17.10;99.90;;;;;;12457297;28;19933;-35
2023/10/07 10:33:20;;;;;;;;;;;17.20;99.90;;;;;;12454060;28;20405;-34
2023/10/07 10:39:25;;;;;;;;;;;17.60;99.90;;;;;;12437185;28;19929;-34
2023/10/07 10:45:42;;;;;;;;;;;18.00;99.90;;;;;;12456101;28;19933;-35
2023/10/07 10:51:48;;;;;;;;;;;18.20;99.90;;;;;;12444350;28;20385;-35
2023/10/07 10:57:50;;;;;;;;;;;18.70;99.90;;;;;;12431888;28;20051;-34
2023/10/07 11:03:53;;;;;;;;;;;18.60;99.90;;;;;;12455062;28;19930;-35
2023/10/07 11:09:55;;;;;;;;;;;18.90;99.90;;;;;;12445541;28;19929;-35
2023/10/07 11:16:04;;;;;;;;;;;19.20;99.90;;;;;;12448013;28;19929;-35
2023/10/07 11:22:07;;;;;;;;;;;19.10;99.90;;;;;;12446123;28;20274;-35
2023/10/07 11:28:09;;;;;;;;;;;18.90;99.90;;;;;;12450196;28;19977;-35
2023/10/07 11:34:11;;;;;;;;;;;18.90;99.90;;;;;;12447386;28;20071;-35
2023/10/07 11:40:13;;;;;;;;;;;18.90;99.90;;;;;;12444018;28;19929;-35
2023/10/07 11:46:15;;;;;;;;;;;18.80;99.90;;;;;;12457616;28;20492;-35
2023/10/07 11:52:19;;;;;;;;;;;18.80;99.90;;;;;;12499884;28;19963;-35
2023/10/07 11:58:21;;;;;;;;;;;19.00;99.90;;;;;;12495427;28;19925;-35
2023/10/07 12:04:22;;;;;;;;;;;19.30;99.90;;;;;;12495270;28;20369;-34
2023/10/07 12:10:26;;;;;;;;;;;19.20;99.90;;;;;;12477879;28;20019;-35
2023/10/07 12:16:32;;;;;;;;;;;19.20;99.90;;;;;;12490521;28;19933;-35
2023/10/07 12:22:35;;;;;;;;;;;19.20;99.90;;;;;;12493868;28;19931;-34
2023/10/07 12:28:37;;;;;;;;;;;19.20;99.90;;;;;;12495232;28;20020;-35
2023/10/07 12:34:47;;;;;;;;;;;19.30;99.90;;;;;;12489871;28;19955;-35
2023/10/07 12:40:49;;;;;;;;;;;19.30;99.90;;;;;;12487481;28;19933;-34
2023/10/07 12:46:54;;;;;;;;;;;19.40;99.90;;;;;;12492281;28;19931;-34
2023/10/07 12:52:57;;;;;;;;;;;19.30;99.90;;;;;;12487236;28;19928;-35
2023/10/07 12:59:01;;;;;;;;;;;19.30;99.90;;;;;;12495372;28;19944;-35
2023/10/07 13:05:09;;;;;;;;;;;19.30;99.90;;;;;;12496923;28;20838;-35
2023/10/07 13:11:12;;;;;;;;;;;19.20;99.90;;;;;;12494467;28;19925;-35
2023/10/07 13:17:13;;;;;;;;;;;19.20;99.90;;;;;;12492488;28;19932;-35
2023/10/07 13:23:15;;;;;;;;;;;19.10;99.90;;;;;;12478882;28;19939;-34
2023/10/07 13:29:18;;;;;;;;;;;19.00;99.90;;;;;;12473378;28;19943;-34
2023/10/07 13:35:20;;;;;;;;;;;19.10;99.90;;;;;;12490169;28;19940;-35
2023/10/07 13:41:23;;;;;;;;;;;19.00;99.90;;;;;;12490990;28;19975;-35
2023/10/07 13:47:26;;;;;;;;;;;19.20;99.90;;;;;;12486259;28;19948;-35
2023/10/07 13:54:21;;;;;;;;;;;19.30;99.90;;;;;;12490266;28;19933;-35
2023/10/07 13:59:53;;;;;;;;;;;19.20;99.90;;;;;;12484294;28;19925;-35
2023/10/07 14:05:55;;;;;;;;;;;19.20;99.90;;;;;;12489927;28;19975;-34
2023/10/07 14:11:57;;;;;;;;;;;19.30;99.90;;;;;;12500405;28;19980;-35
2023/10/07 14:18:01;;;;;;;;;;;19.40;99.90;;;;;;12506036;28;19933;-35
2023/10/07 14:24:06;;;;;;;;;;;19.50;99.90;;;;;;12488803;28;19928;-35
2023/10/07 14:30:08;;;;;;;;;;;19.50;94.60;;;;;;12499884;28;19940;-35
2023/10/07 14:36:10;;;;;;;;;;;19.30;85.00;;;;;;12492711;28;19933;-35
2023/10/07 14:42:13;;;;;;;;;;;19.10;96.50;;;;;;12501330;28;19983;-35
2023/10/07 14:48:15;;;;;;;;;;;19.10;89.10;;;;;;12475623;28;19975;-35
2023/10/07 14:54:18;;;;;;;;;;;19.00;93.60;;;;;;12451956;28;19929;-34
2023/10/07 15:00:20;;;;;;;;;;;18.90;98.00;;;;;;12493275;28;19933;-34
2023/10/07 15:06:22;;;;;;;;;;;18.90;98.60;;;;;;12495861;28;20389;-34
2023/10/07 15:12:24;;;;;;;;;;;18.80;91.20;;;;;;12516875;28;19983;-35
2023/10/07 15:18:25;;;;;;;;;;;18.70;93.50;;;;;;12514355;28;19959;-34
2023/10/07 15:24:28;;;;;;;;;;;18.80;90.10;;;;;;12516624;28;20035;-34
2023/10/07 15:30:35;;;;;;;;;;;18.90;95.10;;;;;;12510316;28;20089;-34
2023/10/07 15:36:37;;;;;;;;;;;18.90;96.20;;;;;;12502444;28;19995;-35
2023/10/07 15:42:40;;;;;;;;;;;18.80;98.70;;;;;;12505218;28;19981;-35
2023/10/07 15:48:42;;;;;;;;;;;18.70;99.90;;;;;;12496633;28;19933;-34
2023/10/07 15:54:44;;;;;;;;;;;18.80;73.40;;;;;;12460700;28;19929;-34
2023/10/07 16:00:47;;;;;;;;;;;18.80;65.30;;;;;;12483997;28;20403;-34
2023/10/07 16:06:49;;;;;;;;;;;18.70;36.20;;;;;;12497078;28;20448;-35
2023/10/07 16:12:52;;;;;;;;;;;18.70;35.70;;;;;;12490042;28;20789;-35
2023/10/07 16:18:54;;;;;;;;;;;18.80;27.40;;;;;;12492200;28;19925;-35
2023/10/07 16:24:56;;;;;;;;;;;18.80;33.90;;;;;;12487079;28;19928;-35
2023/10/07 16:30:57;;;;;;;;;;;18.70;42.60;;;;;;12487244;28;19935;-35
2023/10/07 16:36:59;;;;;;;;;;;18.70;46.30;;;;;;12497999;28;19925;-35
2023/10/07 16:43:01;;;;;;;;;;;18.60;69.30;;;;;;12491721;28;19994;-35
2023/10/07 16:49:06;;;;;;;;;;;18.60;74.80;;;;;;12486488;28;19925;-35
2023/10/07 16:55:07;;;;;;;;;;;18.50;90.00;;;;;;12465366;28;20324;-34
2023/10/07 17:01:10;;;;;;;;;;;18.60;99.90;;;;;;12496820;28;19929;-35
2023/10/07 17:07:12;;;;;;;;;;;18.50;99.90;;;;;;12475626;28;19929;-35
2023/10/07 17:13:14;;;;;;;;;;;18.40;99.90;;;;;;12491462;28;20019;-35
2023/10/07 17:19:16;;;;;;;;;;;18.50;99.90;;;;;;12497484;28;19936;-34
2023/10/07 17:25:18;;;;;;;;;;;18.50;99.90;;;;;;12477485;28;19929;-34
2023/10/07 17:31:19;;;;;;;;;;;18.50;99.90;;;;;;12498753;28;20000;-35
2023/10/07 17:37:22;;;;;;;;;;;18.50;99.90;;;;;;12472982;28;19928;-35
2023/10/07 17:43:24;;;;;;;;;;;18.40;99.90;;;;;;12493681;28;19996;-35
2023/10/07 17:49:25;;;;;;;;;;;18.40;99.90;;;;;;12498406;28;21151;-34
2023/10/07 17:55:28;;;;;;;;;;;18.50;99.90;;;;;;12497768;28;19936;-34
2023/10/07 18:01:30;;;;;;;;;;;18.60;99.90;;;;;;12476931;28;19929;-34
2023/10/07 18:07:33;;;;;;;;;;;18.50;99.90;;;;;;12498455;28;20308;-34
2023/10/07 18:13:35;;;;;;;;;;;18.50;99.90;;;;;;12490544;28;19952;-34
2023/10/07 18:19:38;;;;;;;;;;;18.50;99.90;;;;;;12503291;28;19935;-34
2023/10/07 18:25:40;;;;;;;;;;;18.60;99.90;;;;;;12491710;28;20444;-35
2023/10/07 18:31:42;;;;;;;;;;;18.40;97.60;;;;;;12501101;28;19941;-35
2023/10/07 18:37:43;;;;;;;;;;;18.40;99.90;;;;;;12503762;28;20019;-35
2023/10/07 18:43:45;;;;;;;;;;;18.40;99.90;;;;;;12503314;28;20043;-34
2023/10/07 18:49:48;;;;;;;;;;;18.50;99.90;;;;;;12486942;28;19952;-34
2023/10/07 18:55:53;;;;;;;;;;;18.50;99.90;;;;;;12496231;28;20360;-35
2023/10/07 19:01:55;;;;;;;;;;;18.40;95.90;;;;;;12505757;28;20001;-35
2023/10/07 19:07:56;;;;;;;;;;;18.40;99.70;;;;;;12496947;28;19980;-34
2023/10/07 19:13:59;;;;;;;;;;;18.40;96.70;;;;;;12503711;28;19936;-35
2023/10/07 19:20:01;;;;;;;;;;;18.40;99.90;;;;;;12503546;28;19936;-35
2023/10/07 19:26:03;;;;;;;;;;;18.40;99.90;;;;;;12490157;28;19982;-35
2023/10/07 19:32:05;;;;;;;;;;;18.40;99.90;;;;;;12501918;28;20297;-35
2023/10/07 19:38:07;;;;;;;;;;;18.40;99.90;;;;;;12468167;28;19929;-35
2023/10/07 19:44:09;;;;;;;;;;;18.30;99.90;;;;;;12504660;28;19929;-35
2023/10/07 19:50:11;;;;;;;;;;;18.30;99.10;;;;;;12501462;28;19925;-35
2023/10/07 19:56:13;;;;;;;;;;;18.30;99.90;;;;;;12502131;28;19929;-35
2023/10/07 20:02:15;;;;;;;;;;;18.20;99.90;;;;;;12503163;28;20368;-35
2023/10/07 20:08:18;;;;;;;;;;;18.20;96.60;;;;;;12500993;28;19933;-35
2023/10/07 20:14:21;;;;;;;;;;;18.20;94.90;;;;;;12485788;28;19979;-35
2023/10/07 20:20:23;;;;;;;;;;;18.10;97.30;;;;;;12484770;28;19929;-35
2023/10/07 20:26:26;;;;;;;;;;;18.10;99.90;;;;;;12493873;28;19929;-34
2023/10/07 20:32:28;;;;;;;;;;;18.10;99.90;;;;;;12477335;28;19951;-35
2023/10/07 20:38:30;;;;;;;;;;;18.10;99.90;;;;;;12487985;28;20274;-34
2023/10/07 20:44:32;;;;;;;;;;;17.90;99.90;;;;;;12489419;28;19933;-35
2023/10/07 20:50:35;;;;;;;;;;;17.90;99.90;;;;;;12455455;28;20278;-35
2023/10/07 20:56:37;;;;;;;;;;;17.90;99.90;;;;;;12452136;28;20286;-35
2023/10/07 21:02:42;;;;;;;;;;;17.80;99.90;;;;;;12454286;28;19929;-35
2023/10/07 21:08:44;;;;;;;;;;;17.80;99.90;;;;;;12457190;28;19983;-35
2023/10/07 21:14:46;;;;;;;;;;;17.80;99.90;;;;;;12457888;28;20317;-35
2023/10/07 21:20:48;;;;;;;;;;;17.80;99.90;;;;;;12468941;28;19972;-35
2023/10/07 21:26:51;;;;;;;;;;;17.70;99.90;;;;;;12472535;28;20767;-35
2023/10/07 21:32:53;;;;;;;;;;;17.70;99.90;;;;;;12453511;28;19929;-35
2023/10/07 21:38:55;;;;;;;;;;;17.80;99.90;;;;;;12472250;28;19943;-35
2023/10/07 21:44:57;;;;;;;;;;;17.70;99.90;;;;;;12454195;28;19960;-35
2023/10/07 21:51:06;;;;;;;;;;;17.70;99.90;;;;;;12503547;28;19936;-34
2023/10/07 21:57:08;;;;;;;;;;;17.70;99.90;;;;;;12510622;28;19929;-35
2023/10/07 22:03:16;;;;;;;;;;;17.80;99.90;;;;;;12508684;28;19989;-36
2023/10/07 22:09:18;;;;;;;;;;;17.80;99.90;;;;;;12506740;28;20122;-35
2023/10/07 22:15:20;;;;;;;;;;;17.80;99.90;;;;;;12504722;22;19952;-84
2023/10/07 22:21:26;;;;;;;;;;;17.70;99.90;;;;;;12494010;28;20388;-83
2023/10/07 22:27:28;;;;;;;;;;;17.70;99.90;;;;;;12507429;28;20618;-83
2023/10/07 22:33:33;;;;;;;;;;;17.90;99.90;;;;;;12496429;28;19932;-81
2023/10/07 22:39:37;;;;;;;;;;;17.80;99.90;;;;;;12504708;28;20381;-81
2023/10/07 22:45:42;;;;;;;;;;;17.80;99.90;;;;;;12498870;28;19933;-81
2023/10/07 22:51:47;;;;;;;;;;;17.80;99.90;;;;;;12505610;28;19929;-81
2023/10/07 22:57:49;;;;;;;;;;;17.80;99.90;;;;;;12506018;28;19929;-82
2023/10/07 23:03:56;;;;;;;;;;;17.70;99.90;;;;;;12500428;28;20012;-81
2023/10/07 23:09:59;;;;;;;;;;;17.70;99.90;;;;;;12496128;28;19932;-80
2023/10/07 23:16:07;;;;;;;;;;;17.70;99.90;;;;;;12483826;28;19937;-81
2023/10/07 23:22:23;;;;;;;;;;;17.70;99.90;;;;;;12471480;28;19979;-80
2023/10/07 23:28:32;;;;;;;;;;;17.70;99.90;;;;;;12468469;28;19933;-80
2023/10/07 23:34:37;;;;;;;;;;;17.60;99.90;;;;;;12461600;28;19935;-82
2023/10/07 23:40:39;;;;;;;;;;;17.70;99.90;;;;;;12459482;28;19933;-80
2023/10/07 23:46:43;;;;;;;;;;;17.70;99.90;;;;;;12441580;28;20013;-80
2023/10/07 23:52:45;;;;;;;;;;;17.70;99.90;;;;;;12441415;28;19933;-81
2023/10/07 23:59:03;;;;;;;;;;;17.60;99.90;;;;;;12467069;28;19947;-80
